sensor_id;sensor_type;location;lat;lon;timestamp;pressure;altitude;pressure_sealevel;temperature;humidity
66524;BME280;53350;52.210;5.160;2022-07-19T00:02:07;101854.66;;;23.95;50.03
66524;BME280;53350;52.210;5.160;2022-07-19T00:04:34;101851.19;;;23.94;50.25
66524;BME280;53350;52.210;5.160;2022-07-19T00:07:02;101858.28;;;23.92;49.49
66524;BME280;53350;52.210;5.160;2022-07-19T00:09:28;101857.53;;;23.90;49.39
66524;BME280;53350;52.210;5.160;2022-07-19T00:11:57;101847.84;;;23.91;48.50
66524;BME280;53350;52.210;5.160;2022-07-19T00:14:23;101846.84;;;23.93;48.54
66524;BME280;53350;52.210;5.160;2022-07-19T00:16:50;101852.13;;;23.93;48.66
66524;BME280;53350;52.210;5.160;2022-07-19T00:19:16;101842.50;;;23.92;48.82
66524;BME280;53350;52.210;5.160;2022-07-19T00:21:43;101846.00;;;23.93;48.65
66524;BME280;53350;52.210;5.160;2022-07-19T00:24:09;101850.41;;;23.92;48.66
66524;BME280;53350;52.210;5.160;2022-07-19T00:26:35;101840.84;;;23.91;48.61
66524;BME280;53350;52.210;5.160;2022-07-19T00:29:03;101841.75;;;23.90;48.79
66524;BME280;53350;52.210;5.160;2022-07-19T00:31:30;101841.75;;;23.90;49.12
66524;BME280;53350;52.210;5.160;2022-07-19T00:33:56;101844.47;;;23.89;48.80
66524;BME280;53350;52.210;5.160;2022-07-19T00:36:23;101842.84;;;23.86;49.15
66524;BME280;53350;52.210;5.160;2022-07-19T00:38:49;101850.03;;;23.83;49.39
66524;BME280;53350;52.210;5.160;2022-07-19T00:41:16;101844.91;;;23.79;49.30
66524;BME280;53350;52.210;5.160;2022-07-19T00:43:43;101850.25;;;23.78;48.72
66524;BME280;53350;52.210;5.160;2022-07-19T00:46:14;101848.66;;;23.75;49.27
66524;BME280;53350;52.210;5.160;2022-07-19T00:48:41;101845.22;;;23.73;49.30
66524;BME280;53350;52.210;5.160;2022-07-19T00:51:08;101843.59;;;23.71;49.37
66524;BME280;53350;52.210;5.160;2022-07-19T00:53:35;101845.63;;;23.66;49.55
66524;BME280;53350;52.210;5.160;2022-07-19T00:56:03;101843.16;;;23.63;49.73
66524;BME280;53350;52.210;5.160;2022-07-19T00:58:31;101837.44;;;23.54;49.93
66524;BME280;53350;52.210;5.160;2022-07-19T01:00:58;101850.44;;;23.57;49.96
66524;BME280;53350;52.210;5.160;2022-07-19T01:03:27;101846.16;;;23.55;49.97
66524;BME280;53350;52.210;5.160;2022-07-19T01:05:53;101847.28;;;23.51;49.88
66524;BME280;53350;52.210;5.160;2022-07-19T01:08:19;101847.41;;;23.48;49.93
66524;BME280;53350;52.210;5.160;2022-07-19T01:10:46;101844.94;;;23.44;50.35
66524;BME280;53350;52.210;5.160;2022-07-19T01:13:13;101841.63;;;23.41;50.18
66524;BME280;53350;52.210;5.160;2022-07-19T01:15:41;101840.06;;;23.37;50.27
66524;BME280;53350;52.210;5.160;2022-07-19T01:18:08;101848.13;;;23.34;50.34
66524;BME280;53350;52.210;5.160;2022-07-19T01:20:36;101830.25;;;23.23;50.31
66524;BME280;53350;52.210;5.160;2022-07-19T01:23:04;101828.56;;;23.22;50.13
66524;BME280;53350;52.210;5.160;2022-07-19T01:25:32;101830.41;;;23.20;50.24
66524;BME280;53350;52.210;5.160;2022-07-19T01:27:59;101821.84;;;23.16;50.58
66524;BME280;53350;52.210;5.160;2022-07-19T01:30:26;101822.75;;;23.15;50.39
66524;BME280;53350;52.210;5.160;2022-07-19T01:32:53;101825.53;;;23.12;50.34
66524;BME280;53350;52.210;5.160;2022-07-19T01:35:21;101827.31;;;23.12;50.24
66524;BME280;53350;52.210;5.160;2022-07-19T01:37:48;101830.78;;;23.12;49.08
66524;BME280;53350;52.210;5.160;2022-07-19T01:40:17;101831.72;;;23.11;48.96
66524;BME280;53350;52.210;5.160;2022-07-19T01:42:44;101829.00;;;23.13;48.78
66524;BME280;53350;52.210;5.160;2022-07-19T01:45:12;101814.94;;;23.14;48.64
66524;BME280;53350;52.210;5.160;2022-07-19T01:47:39;101827.84;;;23.18;48.02
66524;BME280;53350;52.210;5.160;2022-07-19T01:50:08;101825.06;;;23.21;47.90
66524;BME280;53350;52.210;5.160;2022-07-19T01:52:35;101831.19;;;23.22;48.05
66524;BME280;53350;52.210;5.160;2022-07-19T01:55:02;101824.00;;;23.25;48.30
66524;BME280;53350;52.210;5.160;2022-07-19T01:57:30;101833.59;;;23.26;48.62
66524;BME280;53350;52.210;5.160;2022-07-19T01:59:57;101826.53;;;23.27;48.28
66524;BME280;53350;52.210;5.160;2022-07-19T02:02:24;101823.91;;;23.27;48.25
66524;BME280;53350;52.210;5.160;2022-07-19T02:04:50;101820.53;;;23.25;48.86
66524;BME280;53350;52.210;5.160;2022-07-19T02:07:17;101820.75;;;23.20;48.18
66524;BME280;53350;52.210;5.160;2022-07-19T02:09:43;101811.16;;;23.19;48.53
66524;BME280;53350;52.210;5.160;2022-07-19T02:12:10;101817.25;;;23.20;48.28
66524;BME280;53350;52.210;5.160;2022-07-19T02:14:37;101813.78;;;23.19;48.60
66524;BME280;53350;52.210;5.160;2022-07-19T02:17:04;101807.69;;;23.19;48.99
66524;BME280;53350;52.210;5.160;2022-07-19T02:19:30;101806.13;;;23.15;49.19
66524;BME280;53350;52.210;5.160;2022-07-19T02:21:57;101803.59;;;23.13;48.69
66524;BME280;53350;52.210;5.160;2022-07-19T02:24:23;101797.47;;;23.13;48.31
66524;BME280;53350;52.210;5.160;2022-07-19T02:26:50;101799.19;;;23.14;48.16
66524;BME280;53350;52.210;5.160;2022-07-19T02:29:16;101797.31;;;23.16;48.16
66524;BME280;53350;52.210;5.160;2022-07-19T02:31:44;101800.81;;;23.16;47.48
66524;BME280;53350;52.210;5.160;2022-07-19T02:34:10;101797.31;;;23.16;47.92
66524;BME280;53350;52.210;5.160;2022-07-19T02:36:37;101800.16;;;23.11;48.36
66524;BME280;53350;52.210;5.160;2022-07-19T02:39:03;101801.13;;;23.08;48.60
66524;BME280;53350;52.210;5.160;2022-07-19T02:41:30;101813.50;;;23.06;48.94
66524;BME280;53350;52.210;5.160;2022-07-19T02:43:57;101805.78;;;23.03;48.96
66524;BME280;53350;52.210;5.160;2022-07-19T02:46:23;101802.31;;;23.03;49.07
66524;BME280;53350;52.210;5.160;2022-07-19T02:48:51;101810.31;;;23.00;49.30
66524;BME280;53350;52.210;5.160;2022-07-19T02:51:18;101806.94;;;22.98;49.72
66524;BME280;53350;52.210;5.160;2022-07-19T02:53:44;101804.47;;;22.95;49.24
66524;BME280;53350;52.210;5.160;2022-07-19T02:56:10;101801.03;;;22.92;49.58
66524;BME280;53350;52.210;5.160;2022-07-19T02:58:37;101800.28;;;22.90;49.61
66524;BME280;53350;52.210;5.160;2022-07-19T03:01:03;101800.28;;;22.90;50.15
66524;BME280;53350;52.210;5.160;2022-07-19T03:03:30;101796.91;;;22.88;49.74
66524;BME280;53350;52.210;5.160;2022-07-19T03:06:15;101801.34;;;22.86;50.07
66524;BME280;53350;52.210;5.160;2022-07-19T03:08:41;101795.34;;;22.84;50.06
66524;BME280;53350;52.210;5.160;2022-07-19T03:11:08;101795.50;;;22.81;50.03
66524;BME280;53350;52.210;5.160;2022-07-19T03:13:34;101798.25;;;22.78;50.07
66524;BME280;53350;52.210;5.160;2022-07-19T03:16:01;101793.00;;;22.78;50.31
66524;BME280;53350;52.210;5.160;2022-07-19T03:18:27;101807.91;;;22.78;50.51
66524;BME280;53350;52.210;5.160;2022-07-19T03:20:54;101803.66;;;22.75;50.91
66524;BME280;53350;52.210;5.160;2022-07-19T03:23:22;101797.63;;;22.73;50.83
66524;BME280;53350;52.210;5.160;2022-07-19T03:25:48;101796.00;;;22.70;51.10
66524;BME280;53350;52.210;5.160;2022-07-19T03:28:15;101803.03;;;22.70;51.27
66524;BME280;53350;52.210;5.160;2022-07-19T03:30:41;101804.09;;;22.66;51.50
66524;BME280;53350;52.210;5.160;2022-07-19T03:33:09;101796.38;;;22.63;51.02
66524;BME280;53350;52.210;5.160;2022-07-19T03:35:36;101788.00;;;22.54;51.38
66524;BME280;53350;52.210;5.160;2022-07-19T03:38:02;101803.69;;;22.56;51.61
66524;BME280;53350;52.210;5.160;2022-07-19T03:40:30;101802.13;;;22.52;51.78
66524;BME280;53350;52.210;5.160;2022-07-19T03:42:56;101801.44;;;22.48;52.31
66524;BME280;53350;52.210;5.160;2022-07-19T03:45:23;101784.63;;;22.33;52.44
66524;BME280;53350;52.210;5.160;2022-07-19T03:47:49;101798.44;;;22.37;52.86
66524;BME280;53350;52.210;5.160;2022-07-19T03:50:16;101798.53;;;22.35;52.57
66524;BME280;53350;52.210;5.160;2022-07-19T03:52:42;101797.69;;;22.35;53.24
66524;BME280;53350;52.210;5.160;2022-07-19T03:55:09;101790.78;;;22.32;53.25
66524;BME280;53350;52.210;5.160;2022-07-19T03:57:36;101800.53;;;22.29;53.25
66524;BME280;53350;52.210;5.160;2022-07-19T04:00:04;101796.34;;;22.24;53.79
66524;BME280;53350;52.210;5.160;2022-07-19T04:02:31;101793.25;;;22.16;53.81
66524;BME280;53350;52.210;5.160;2022-07-19T04:04:58;101788.16;;;22.13;54.01
66524;BME280;53350;52.210;5.160;2022-07-19T04:07:24;101792.66;;;22.10;54.44
66524;BME280;53350;52.210;5.160;2022-07-19T04:09:51;101791.84;;;22.09;54.36
66524;BME280;53350;52.210;5.160;2022-07-19T04:12:17;101799.63;;;22.11;54.69
66524;BME280;53350;52.210;5.160;2022-07-19T04:14:45;101799.78;;;22.08;54.84
66524;BME280;53350;52.210;5.160;2022-07-19T04:17:11;101793.72;;;22.05;54.66
66524;BME280;53350;52.210;5.160;2022-07-19T04:19:38;101797.06;;;22.09;54.71
66524;BME280;53350;52.210;5.160;2022-07-19T04:22:04;101787.34;;;22.11;55.05
66524;BME280;53350;52.210;5.160;2022-07-19T04:24:31;101790.69;;;22.15;54.67
66524;BME280;53350;52.210;5.160;2022-07-19T04:26:57;101785.38;;;22.16;55.10
66524;BME280;53350;52.210;5.160;2022-07-19T04:29:23;101777.00;;;22.08;54.52
66524;BME280;53350;52.210;5.160;2022-07-19T04:31:51;101791.41;;;22.18;54.82
66524;BME280;53350;52.210;5.160;2022-07-19T04:34:18;101798.28;;;22.21;54.61
66524;BME280;53350;52.210;5.160;2022-07-19T04:36:44;101796.50;;;22.21;54.29
66524;BME280;53350;52.210;5.160;2022-07-19T04:39:10;101798.97;;;22.24;54.68
66524;BME280;53350;52.210;5.160;2022-07-19T04:41:37;101788.38;;;22.28;54.68
66524;BME280;53350;52.210;5.160;2022-07-19T04:44:04;101789.81;;;22.35;54.51
66524;BME280;53350;52.210;5.160;2022-07-19T04:46:30;101792.91;;;22.43;54.20
66524;BME280;53350;52.210;5.160;2022-07-19T04:48:58;101789.88;;;22.52;54.07
66524;BME280;53350;52.210;5.160;2022-07-19T04:51:25;101795.44;;;22.64;54.38
66524;BME280;53350;52.210;5.160;2022-07-19T04:53:51;101788.75;;;22.75;54.40
66524;BME280;53350;52.210;5.160;2022-07-19T04:56:18;101786.38;;;22.88;53.97
66524;BME280;53350;52.210;5.160;2022-07-19T04:58:44;101793.56;;;23.02;53.15
66524;BME280;53350;52.210;5.160;2022-07-19T05:01:11;101791.28;;;23.14;52.61
66524;BME280;53350;52.210;5.160;2022-07-19T05:03:37;101792.38;;;23.27;52.70
66524;BME280;53350;52.210;5.160;2022-07-19T05:06:06;101793.44;;;23.40;51.91
66524;BME280;53350;52.210;5.160;2022-07-19T05:08:33;101792.66;;;23.56;51.93
66524;BME280;53350;52.210;5.160;2022-07-19T05:10:59;101792.53;;;23.75;51.45
66524;BME280;53350;52.210;5.160;2022-07-19T05:13:25;101791.50;;;23.95;50.82
66524;BME280;53350;52.210;5.160;2022-07-19T05:15:52;101793.16;;;24.13;50.50
66524;BME280;53350;52.210;5.160;2022-07-19T05:18:18;101786.97;;;24.30;49.97
66524;BME280;53350;52.210;5.160;2022-07-19T05:20:45;101784.91;;;24.52;49.48
66524;BME280;53350;52.210;5.160;2022-07-19T05:23:12;101782.00;;;24.72;49.01
66524;BME280;53350;52.210;5.160;2022-07-19T05:25:39;101775.69;;;24.91;48.29
66524;BME280;53350;52.210;5.160;2022-07-19T05:28:05;101785.53;;;25.03;47.36
66524;BME280;53350;52.210;5.160;2022-07-19T05:30:32;101783.94;;;25.15;46.55
66524;BME280;53350;52.210;5.160;2022-07-19T05:32:58;101788.47;;;25.27;46.75
66524;BME280;53350;52.210;5.160;2022-07-19T05:35:25;101777.16;;;25.41;46.53
66524;BME280;53350;52.210;5.160;2022-07-19T05:37:51;101776.03;;;25.60;46.45
66524;BME280;53350;52.210;5.160;2022-07-19T05:40:19;101778.66;;;25.74;45.75
66524;BME280;53350;52.210;5.160;2022-07-19T05:42:45;101779.22;;;25.94;45.85
66524;BME280;53350;52.210;5.160;2022-07-19T05:45:12;101782.53;;;26.12;44.49
66524;BME280;53350;52.210;5.160;2022-07-19T05:47:38;101781.53;;;26.27;44.30
66524;BME280;53350;52.210;5.160;2022-07-19T05:50:05;101777.81;;;26.44;43.69
66524;BME280;53350;52.210;5.160;2022-07-19T05:52:32;101780.50;;;26.57;43.32
66524;BME280;53350;52.210;5.160;2022-07-19T05:54:58;101783.50;;;26.65;42.69
66524;BME280;53350;52.210;5.160;2022-07-19T05:57:26;101780.50;;;26.71;42.44
66524;BME280;53350;52.210;5.160;2022-07-19T05:59:52;101786.34;;;26.77;42.32
66524;BME280;53350;52.210;5.160;2022-07-19T06:02:19;101780.72;;;26.81;43.14
66524;BME280;53350;52.210;5.160;2022-07-19T06:04:46;101782.84;;;26.89;42.98
66524;BME280;53350;52.210;5.160;2022-07-19T06:07:13;101779.78;;;26.95;42.54
66524;BME280;53350;52.210;5.160;2022-07-19T06:09:40;101787.97;;;27.05;42.49
66524;BME280;53350;52.210;5.160;2022-07-19T06:12:06;101777.06;;;27.10;42.61
66524;BME280;53350;52.210;5.160;2022-07-19T06:14:34;101783.53;;;27.18;42.15
66524;BME280;53350;52.210;5.160;2022-07-19T06:17:01;101775.19;;;27.24;41.61
66524;BME280;53350;52.210;5.160;2022-07-19T06:19:28;101778.06;;;27.34;41.60
66524;BME280;53350;52.210;5.160;2022-07-19T06:21:54;101775.97;;;27.39;41.03
66524;BME280;53350;52.210;5.160;2022-07-19T06:24:21;101772.16;;;27.44;41.29
66524;BME280;53350;52.210;5.160;2022-07-19T06:26:47;101772.56;;;27.50;41.07
66524;BME280;53350;52.210;5.160;2022-07-19T06:29:14;101778.94;;;27.61;41.12
66524;BME280;53350;52.210;5.160;2022-07-19T06:31:42;101773.31;;;27.65;40.77
66524;BME280;53350;52.210;5.160;2022-07-19T06:34:08;101778.78;;;27.75;40.82
66524;BME280;53350;52.210;5.160;2022-07-19T06:36:35;101778.16;;;27.84;39.52
66524;BME280;53350;52.210;5.160;2022-07-19T06:39:02;101779.63;;;27.88;39.45
66524;BME280;53350;52.210;5.160;2022-07-19T06:41:29;101779.31;;;27.93;39.50
66524;BME280;53350;52.210;5.160;2022-07-19T06:43:55;101779.84;;;27.98;39.23
66524;BME280;53350;52.210;5.160;2022-07-19T06:46:22;101786.31;;;28.07;39.64
66524;BME280;53350;52.210;5.160;2022-07-19T06:48:50;101787.34;;;28.17;39.18
66524;BME280;53350;52.210;5.160;2022-07-19T06:51:17;101780.63;;;28.24;39.14
66524;BME280;53350;52.210;5.160;2022-07-19T06:53:43;101782.59;;;28.34;38.80
66524;BME280;53350;52.210;5.160;2022-07-19T06:56:10;101778.66;;;28.39;38.67
66524;BME280;53350;52.210;5.160;2022-07-19T06:58:37;101770.47;;;28.42;38.76
66524;BME280;53350;52.210;5.160;2022-07-19T07:01:04;101779.31;;;28.54;38.64
66524;BME280;53350;52.210;5.160;2022-07-19T07:03:30;101769.16;;;28.61;37.93
66524;BME280;53350;52.210;5.160;2022-07-19T07:05:58;101778.09;;;28.71;37.60
66524;BME280;53350;52.210;5.160;2022-07-19T07:08:25;101764.38;;;28.77;38.36
66524;BME280;53350;52.210;5.160;2022-07-19T07:10:51;101775.97;;;28.88;38.23
66524;BME280;53350;52.210;5.160;2022-07-19T07:13:18;101763.00;;;28.96;37.77
66524;BME280;53350;52.210;5.160;2022-07-19T07:15:45;101761.31;;;29.06;38.19
66524;BME280;53350;52.210;5.160;2022-07-19T07:18:11;101763.38;;;29.14;37.52
66524;BME280;53350;52.210;5.160;2022-07-19T07:20:38;101760.06;;;29.23;37.33
66524;BME280;53350;52.210;5.160;2022-07-19T07:23:06;101758.50;;;29.32;37.00
66524;BME280;53350;52.210;5.160;2022-07-19T07:25:33;101751.63;;;29.41;37.02
66524;BME280;53350;52.210;5.160;2022-07-19T07:27:59;101748.38;;;29.48;36.99
66524;BME280;53350;52.210;5.160;2022-07-19T07:30:26;101753.22;;;29.55;37.66
66524;BME280;53350;52.210;5.160;2022-07-19T07:32:53;101751.53;;;29.65;37.10
66524;BME280;53350;52.210;5.160;2022-07-19T07:35:19;101754.66;;;29.70;37.55
66524;BME280;53350;52.210;5.160;2022-07-19T07:37:46;101740.66;;;29.79;37.02
66524;BME280;53350;52.210;5.160;2022-07-19T07:40:13;101749.72;;;29.88;37.13
66524;BME280;53350;52.210;5.160;2022-07-19T07:42:40;101743.66;;;29.97;37.52
66524;BME280;53350;52.210;5.160;2022-07-19T07:45:07;101737.50;;;30.08;37.60
66524;BME280;53350;52.210;5.160;2022-07-19T07:47:35;101735.03;;;30.16;37.08
66524;BME280;53350;52.210;5.160;2022-07-19T07:50:02;101742.84;;;30.29;36.48
66524;BME280;53350;52.210;5.160;2022-07-19T07:52:28;101742.06;;;30.39;35.94
66524;BME280;53350;52.210;5.160;2022-07-19T07:54:55;101736.03;;;30.48;35.74
66524;BME280;53350;52.210;5.160;2022-07-19T07:57:22;101736.97;;;30.58;35.39
66524;BME280;53350;52.210;5.160;2022-07-19T07:59:49;101726.41;;;30.68;34.51
66524;BME280;53350;52.210;5.160;2022-07-19T08:02:15;101730.94;;;30.77;34.69
66524;BME280;53350;52.210;5.160;2022-07-19T08:04:42;101723.97;;;30.86;34.49
66524;BME280;53350;52.210;5.160;2022-07-19T08:07:08;101728.16;;;31.00;34.51
66524;BME280;53350;52.210;5.160;2022-07-19T08:09:35;101720.94;;;31.12;34.83
66524;BME280;53350;52.210;5.160;2022-07-19T08:12:01;101728.59;;;31.26;35.05
66524;BME280;53350;52.210;5.160;2022-07-19T08:14:29;101720.94;;;31.43;34.71
66524;BME280;53350;52.210;5.160;2022-07-19T08:16:55;101716.22;;;31.56;34.03
66524;BME280;53350;52.210;5.160;2022-07-19T08:19:22;101715.16;;;31.68;33.82
66524;BME280;53350;52.210;5.160;2022-07-19T08:21:48;101717.59;;;31.81;33.66
66524;BME280;53350;52.210;5.160;2022-07-19T08:24:15;101711.13;;;31.94;33.48
66524;BME280;53350;52.210;5.160;2022-07-19T08:26:41;101720.28;;;32.11;32.78
66524;BME280;53350;52.210;5.160;2022-07-19T08:29:08;101715.44;;;32.26;31.91
66524;BME280;53350;52.210;5.160;2022-07-19T08:31:35;101716.81;;;32.39;31.54
66524;BME280;53350;52.210;5.160;2022-07-19T08:34:02;101713.31;;;32.49;31.41
66524;BME280;53350;52.210;5.160;2022-07-19T08:36:29;101712.00;;;32.63;31.23
66524;BME280;53350;52.210;5.160;2022-07-19T08:38:55;101714.13;;;32.79;29.75
66524;BME280;53350;52.210;5.160;2022-07-19T08:41:21;101721.00;;;32.91;29.10
66524;BME280;53350;52.210;5.160;2022-07-19T08:43:49;101717.00;;;33.05;28.66
66524;BME280;53350;52.210;5.160;2022-07-19T08:46:18;101709.78;;;33.15;27.96
66524;BME280;53350;52.210;5.160;2022-07-19T08:48:47;101703.31;;;33.27;28.31
66524;BME280;53350;52.210;5.160;2022-07-19T08:51:18;101706.34;;;33.42;28.13
66524;BME280;53350;52.210;5.160;2022-07-19T08:53:45;101703.00;;;33.58;27.70
66524;BME280;53350;52.210;5.160;2022-07-19T08:56:12;101697.75;;;33.76;27.80
66524;BME280;53350;52.210;5.160;2022-07-19T08:58:56;101696.47;;;33.99;27.46
66524;BME280;53350;52.210;5.160;2022-07-19T09:01:22;101691.88;;;34.09;27.26
66524;BME280;53350;52.210;5.160;2022-07-19T09:04:21;101694.00;;;34.23;26.85
66524;BME280;53350;52.210;5.160;2022-07-19T09:06:51;101685.31;;;34.39;27.23
66524;BME280;53350;52.210;5.160;2022-07-19T09:09:20;101689.94;;;34.55;26.82
66524;BME280;53350;52.210;5.160;2022-07-19T09:11:47;101700.22;;;34.68;26.92
66524;BME280;53350;52.210;5.160;2022-07-19T09:14:17;101687.44;;;34.80;26.67
66524;BME280;53350;52.210;5.160;2022-07-19T09:16:52;101694.22;;;34.92;26.85
66524;BME280;53350;52.210;5.160;2022-07-19T09:19:20;101690.09;;;35.06;25.99
66524;BME280;53350;52.210;5.160;2022-07-19T09:21:55;101693.66;;;35.15;25.91
66524;BME280;53350;52.210;5.160;2022-07-19T09:24:22;101687.50;;;35.23;25.56
66524;BME280;53350;52.210;5.160;2022-07-19T09:26:55;101690.44;;;35.38;25.27
66524;BME280;53350;52.210;5.160;2022-07-19T09:29:22;101689.78;;;35.44;25.64
66524;BME280;53350;52.210;5.160;2022-07-19T09:32:00;101685.97;;;35.55;26.05
66524;BME280;53350;52.210;5.160;2022-07-19T09:34:29;101683.28;;;35.63;25.57
66524;BME280;53350;52.210;5.160;2022-07-19T09:37:16;101665.72;;;35.60;26.18
66524;BME280;53350;52.210;5.160;2022-07-19T09:39:45;101679.84;;;35.87;24.82
66524;BME280;53350;52.210;5.160;2022-07-19T09:42:13;101675.50;;;35.94;24.74
66524;BME280;53350;52.210;5.160;2022-07-19T09:44:40;101675.50;;;36.02;24.52
66524;BME280;53350;52.210;5.160;2022-07-19T09:47:07;101676.69;;;36.08;24.73
66524;BME280;53350;52.210;5.160;2022-07-19T09:49:34;101673.84;;;36.10;24.99
66524;BME280;53350;52.210;5.160;2022-07-19T09:52:02;101669.13;;;36.12;25.14
66524;BME280;53350;52.210;5.160;2022-07-19T09:54:29;101666.28;;;36.21;24.31
66524;BME280;53350;52.210;5.160;2022-07-19T09:56:57;101673.69;;;36.36;23.96
66524;BME280;53350;52.210;5.160;2022-07-19T09:59:25;101669.31;;;36.43;23.39
66524;BME280;53350;52.210;5.160;2022-07-19T10:01:54;101666.94;;;36.48;23.02
66524;BME280;53350;52.210;5.160;2022-07-19T10:04:22;101659.72;;;36.57;23.34
66524;BME280;53350;52.210;5.160;2022-07-19T10:06:51;101658.88;;;36.65;22.54
66524;BME280;53350;52.210;5.160;2022-07-19T10:09:20;101658.53;;;36.68;22.43
66524;BME280;53350;52.210;5.160;2022-07-19T10:11:48;101657.00;;;36.73;22.69
66524;BME280;53350;52.210;5.160;2022-07-19T10:14:14;101652.00;;;36.70;22.71
66524;BME280;53350;52.210;5.160;2022-07-19T10:16:56;101650.47;;;36.68;22.83
66524;BME280;53350;52.210;5.160;2022-07-19T10:19:30;101653.00;;;36.78;23.50
66524;BME280;53350;52.210;5.160;2022-07-19T10:22:01;101653.81;;;36.86;22.82
66524;BME280;53350;52.210;5.160;2022-07-19T10:24:45;101645.88;;;36.93;22.54
66524;BME280;53350;52.210;5.160;2022-07-19T10:27:12;101643.53;;;36.98;22.84
66524;BME280;53350;52.210;5.160;2022-07-19T10:29:39;101650.22;;;37.02;22.54
66524;BME280;53350;52.210;5.160;2022-07-19T10:32:07;101639.97;;;37.06;22.57
66524;BME280;53350;52.210;5.160;2022-07-19T10:34:35;101643.44;;;37.15;22.60
66524;BME280;53350;52.210;5.160;2022-07-19T10:37:03;101636.00;;;37.25;22.96
66524;BME280;53350;52.210;5.160;2022-07-19T10:39:31;101641.53;;;37.32;22.63
66524;BME280;53350;52.210;5.160;2022-07-19T10:42:20;101627.94;;;37.25;22.34
66524;BME280;53350;52.210;5.160;2022-07-19T10:45:09;101630.16;;;37.21;21.69
66524;BME280;53350;52.210;5.160;2022-07-19T10:47:59;101626.59;;;37.29;21.93
66524;BME280;53350;52.210;5.160;2022-07-19T10:50:42;101623.91;;;37.29;21.35
66524;BME280;53350;52.210;5.160;2022-07-19T10:53:10;101618.88;;;37.34;22.19
66524;BME280;53350;52.210;5.160;2022-07-19T10:55:36;101620.28;;;37.45;21.14
66524;BME280;53350;52.210;5.160;2022-07-19T10:58:10;101620.84;;;37.40;21.68
66524;BME280;53350;52.210;5.160;2022-07-19T11:00:41;101623.84;;;37.46;20.70
66524;BME280;53350;52.210;5.160;2022-07-19T11:03:27;101623.53;;;37.40;20.70
66524;BME280;53350;52.210;5.160;2022-07-19T11:05:56;101610.81;;;37.34;20.35
66524;BME280;53350;52.210;5.160;2022-07-19T11:08:32;101610.81;;;37.34;20.92
66524;BME280;53350;52.210;5.160;2022-07-19T11:11:03;101616.34;;;37.33;20.31
66524;BME280;53350;52.210;5.160;2022-07-19T11:13:30;101608.72;;;37.45;20.03
66524;BME280;53350;52.210;5.160;2022-07-19T11:15:57;101593.53;;;37.52;20.46
66524;BME280;53350;52.210;5.160;2022-07-19T11:18:24;101598.84;;;37.60;20.21
66524;BME280;53350;52.210;5.160;2022-07-19T11:20:50;101598.50;;;37.63;20.70
66524;BME280;53350;52.210;5.160;2022-07-19T11:23:18;101598.78;;;37.68;19.93
66524;BME280;53350;52.210;5.160;2022-07-19T11:25:46;101592.75;;;37.66;19.66
66524;BME280;53350;52.210;5.160;2022-07-19T11:28:20;101593.59;;;37.67;20.00
66524;BME280;53350;52.210;5.160;2022-07-19T11:30:47;101588.38;;;37.73;18.67
66524;BME280;53350;52.210;5.160;2022-07-19T11:33:16;101588.38;;;37.73;19.28
66524;BME280;53350;52.210;5.160;2022-07-19T11:35:54;101585.50;;;37.75;19.09
66524;BME280;53350;52.210;5.160;2022-07-19T11:38:20;101584.31;;;37.78;19.03
66524;BME280;53350;52.210;5.160;2022-07-19T11:40:48;101567.63;;;37.82;18.79
66524;BME280;53350;52.210;5.160;2022-07-19T11:43:14;101578.00;;;37.85;18.97
66524;BME280;53350;52.210;5.160;2022-07-19T11:45:43;101577.81;;;37.87;19.56
66524;BME280;53350;52.210;5.160;2022-07-19T11:48:10;101565.19;;;37.87;19.56
66524;BME280;53350;52.210;5.160;2022-07-19T11:50:36;101570.06;;;37.92;19.31
66524;BME280;53350;52.210;5.160;2022-07-19T11:53:06;101568.19;;;37.92;19.08
66524;BME280;53350;52.210;5.160;2022-07-19T11:55:35;101564.69;;;37.92;18.90
66524;BME280;53350;52.210;5.160;2022-07-19T11:58:06;101564.75;;;37.84;19.34
66524;BME280;53350;52.210;5.160;2022-07-19T12:00:34;101558.00;;;37.88;19.89
66524;BME280;53350;52.210;5.160;2022-07-19T12:03:03;101562.81;;;37.92;19.88
66524;BME280;53350;52.210;5.160;2022-07-19T12:05:32;101564.50;;;37.93;19.60
66524;BME280;53350;52.210;5.160;2022-07-19T12:08:02;101552.50;;;37.96;19.77
66524;BME280;53350;52.210;5.160;2022-07-19T12:10:36;101544.75;;;38.01;19.88
66524;BME280;53350;52.210;5.160;2022-07-19T12:13:06;101548.63;;;37.99;20.01
66524;BME280;53350;52.210;5.160;2022-07-19T12:15:50;101544.44;;;37.96;19.00
66524;BME280;53350;52.210;5.160;2022-07-19T12:18:20;101539.19;;;38.03;19.80
66524;BME280;53350;52.210;5.160;2022-07-19T12:21:15;101542.25;;;38.00;20.19
66524;BME280;53350;52.210;5.160;2022-07-19T12:23:42;101536.28;;;38.04;20.19
66524;BME280;53350;52.210;5.160;2022-07-19T12:26:08;101532.31;;;38.00;20.23
66524;BME280;53350;52.210;5.160;2022-07-19T12:28:36;101532.13;;;38.02;20.01
66524;BME280;53350;52.210;5.160;2022-07-19T12:31:03;101525.72;;;38.03;20.60
66524;BME280;53350;52.210;5.160;2022-07-19T12:33:30;101519.34;;;38.04;20.85
66524;BME280;53350;52.210;5.160;2022-07-19T12:35:57;101530.72;;;37.91;20.62
66524;BME280;53350;52.210;5.160;2022-07-19T12:38:27;101515.16;;;37.86;20.66
66524;BME280;53350;52.210;5.160;2022-07-19T12:41:04;101518.66;;;37.87;21.10
66524;BME280;53350;52.210;5.160;2022-07-19T12:43:31;101510.97;;;37.84;21.20
66524;BME280;53350;52.210;5.160;2022-07-19T12:46:00;101511.03;;;37.90;21.39
66524;BME280;53350;52.210;5.160;2022-07-19T12:48:28;101502.97;;;37.90;21.46
66524;BME280;53350;52.210;5.160;2022-07-19T12:50:55;101501.50;;;37.88;21.37
66524;BME280;53350;52.210;5.160;2022-07-19T12:53:22;101503.91;;;37.98;21.42
66524;BME280;53350;52.210;5.160;2022-07-19T12:55:49;101499.84;;;38.02;20.98